Terminal Aerodrome Forecast
Issued by NWS Melbourne, FL

Home | Current Version | Previous Version | Text Only | Print | Product List | Glossary On
Versions: 1 2 3 4 5 6 7 8 9 10 11 12 13 14 15 16 17 18 19 20 21 22 23 24 25 26
000
FTUS42 KMLB 212100 AAA
TAFMCO
TAF AMD
KMCO 212146Z 2122/2218 17004KT P6SM VCTS SCT060CB SCT100 BKN250
      TEMPO 2122/2123 VRB15G28KT
     FM212300 12005KT P6SM SCT050 SCT100 BKN250
     FM220100 15004KT P6SM FEW050 SCT250
     FM220600 VRB02KT P6SM FEW250
     FM221400 23005KT P6SM FEW040=

USA.gov is the U.S. government's official web portal to all federal, state and local government web resources and services.